地図

経路データ

SID SEASON NUMBER BASIN SUBBASIN NAME ISO_TIME NATURE LAT LON WMO_WIND WMO_PRES WMO_AGENCY TRACK_TYPE DIST2LAND LANDFALL IFLAG USA_AGENCY USA_ATCF_ID USA_LAT USA_LON USA_RECORD USA_STATUS USA_WIND USA_PRES USA_SSHS USA_R34_NE USA_R34_SE USA_R34_SW USA_R34_NW USA_R50_NE USA_R50_SE USA_R50_SW USA_R50_NW USA_R64_NE USA_R64_SE USA_R64_SW USA_R64_NW USA_POCI USA_ROCI USA_RMW USA_EYE TOKYO_LAT TOKYO_LON TOKYO_GRADE TOKYO_WIND TOKYO_PRES TOKYO_R50_DIR TOKYO_R50_LONG TOKYO_R50_SHORT TOKYO_R30_DIR TOKYO_R30_LONG TOKYO_R30_SHORT TOKYO_LAND CMA_LAT CMA_LON CMA_CAT CMA_WIND CMA_PRES HKO_LAT HKO_LON HKO_CAT HKO_WIND HKO_PRES NEWDELHI_LAT NEWDELHI_LON NEWDELHI_GRADE NEWDELHI_WIND NEWDELHI_PRES NEWDELHI_CI NEWDELHI_DP NEWDELHI_POCI REUNION_LAT REUNION_LON REUNION_TYPE REUNION_WIND REUNION_PRES REUNION_TNUM REUNION_CI REUNION_RMW REUNION_R34_NE REUNION_R34_SE REUNION_R34_SW REUNION_R34_NW REUNION_R50_NE REUNION_R50_SE REUNION_R50_SW REUNION_R50_NW REUNION_R64_NE REUNION_R64_SE REUNION_R64_SW REUNION_R64_NW BOM_LAT BOM_LON BOM_TYPE BOM_WIND BOM_PRES BOM_TNUM BOM_CI BOM_RMW BOM_R34_NE BOM_R34_SE BOM_R34_SW BOM_R34_NW BOM_R50_NE BOM_R50_SE BOM_R50_SW BOM_R50_NW BOM_R64_NE BOM_R64_SE BOM_R64_SW BOM_R64_NW BOM_ROCI BOM_POCI BOM_EYE BOM_POS_METHOD BOM_PRES_METHOD NADI_LAT NADI_LON NADI_CAT NADI_WIND NADI_PRES WELLINGTON_LAT WELLINGTON_LON WELLINGTON_WIND WELLINGTON_PRES DS824_LAT DS824_LON DS824_STAGE DS824_WIND DS824_PRES TD9636_LAT TD9636_LON TD9636_STAGE TD9636_WIND TD9636_PRES TD9635_LAT TD9635_LON TD9635_WIND TD9635_PRES TD9635_ROCI NEUMANN_LAT NEUMANN_LON NEUMANN_CLASS NEUMANN_WIND NEUMANN_PRES MLC_LAT MLC_LON MLC_CLASS MLC_WIND MLC_PRES USA_GUST BOM_GUST BOM_GUST_PER REUNION_GUST REUNION_GUST_PER USA_SEAHGT USA_SEARAD_NE USA_SEARAD_SE USA_SEARAD_SW USA_SEARAD_NW STORM_SPEED STORM_DIR
1933208N08140 1933 33 WP MM NOT_NAMED 1933-07-26 21:00:00 NR 8.40000 139.900 main 1122 1122 __________O___ -1 8.40000 139.900 7 1 306
1933208N08140 1933 33 WP MM NOT_NAMED 1933-07-27 00:00:00 NR 8.43277 139.868 main 1122 1122 __________P___ -1 8.43277 139.868 7 1 321
1933208N08140 1933 33 WP MM NOT_NAMED 1933-07-27 03:00:00 NR 8.50243 139.820 main 1128 1128 __________P___ -1 8.50243 139.820 7 3 328
1933208N08140 1933 33 WP MM NOT_NAMED 1933-07-27 06:00:00 NR 8.64588 139.736 main 1134 1134 __________P___ -1 8.64588 139.736 7 5 331
1933208N08140 1933 33 WP MM NOT_NAMED 1933-07-27 09:00:00 NR 8.90000 139.600 main 1161 1161 __________O___ -1 8.90000 139.600 7 7 333
1933208N08140 1933 33 WP MM NOT_NAMED 1933-07-27 12:00:00 NR 9.28666 139.401 main 1196 1196 __________P___ -1 9.28666 139.401 7 10 333
1933208N08140 1933 33 WP MM NOT_NAMED 1933-07-27 15:00:00 NR 9.76766 139.153 main 1242 1238 __________P___ -1 9.76766 139.153 7 11 333
1933208N08140 1933 33 WP MM NOT_NAMED 1933-07-27 18:00:00 NR 10.2898 138.879 main 1285 1282 __________P___ -1 10.2898 138.879 7 12 332
1933208N08140 1933 33 WP MM NOT_NAMED 1933-07-27 21:00:00 NR 10.8000 138.600 main 1330 1330 __________O___ -1 10.8000 138.600 7 11 330
1933208N08140 1933 33 WP MM NOT_NAMED 1933-07-28 00:00:00 NR 11.2135 138.326 main 1342 1327 __________P___ -1 11.2135 138.326 7 10 326
1933208N08140 1933 33 WP MM NOT_NAMED 1933-07-28 03:00:00 NR 11.6076 138.055 main 1329 1304 __________P___ -1 11.6076 138.055 7 9 327
1933208N08140 1933 33 WP MM NOT_NAMED 1933-07-28 06:00:00 NR 11.9979 137.807 main 1306 1293 __________P___ -1 11.9979 137.807 7 9 331
1933208N08140 1933 33 WP MM NOT_NAMED 1933-07-28 09:00:00 NR 12.4000 137.600 main 1295 1285 __________O___ -1 12.4000 137.600 7 9 339
1933208N08140 1933 33 WP MM NOT_NAMED 1933-07-28 12:00:00 NR 12.8517 137.473 main 1291 1282 __________P___ -1 12.8517 137.473 7 9 347
1933208N08140 1933 33 WP MM NOT_NAMED 1933-07-28 15:00:00 NR 13.3147 137.384 main 1287 1281 __________P___ -1 13.3147 137.384 7 9 350
1933208N08140 1933 33 WP MM NOT_NAMED 1933-07-28 18:00:00 NR 13.7704 137.304 main 1288 1282 __________P___ -1 13.7704 137.304 7 9 349
1933208N08140 1933 33 WP MM NOT_NAMED 1933-07-28 21:00:00 NR 14.2000 137.200 main 1286 1279 __________O___ -1 14.2000 137.200 7 8 346
1933208N08140 1933 33 WP MM NOT_NAMED 1933-07-29 00:00:00 NR 14.5781 137.097 main 1283 1275 __________P___ -1 14.5781 137.097 7 8 342
1933208N08140 1933 33 WP MM NOT_NAMED 1933-07-29 03:00:00 NR 14.9289 136.956 main 1279 1263 __________P___ -1 14.9289 136.956 7 8 333
1933208N08140 1933 33 WP MM NOT_NAMED 1933-07-29 06:00:00 NR 15.2652 136.737 main 1258 1236 __________P___ -1 15.2652 136.737 7 9 321
1933208N08140 1933 33 WP MM NOT_NAMED 1933-07-29 09:00:00 NR 15.6000 136.400 main 1236 1196 __________O___ -1 15.6000 136.400 7 11 310
1933208N08140 1933 33 WP MM NOT_NAMED 1933-07-29 12:00:00 NR 15.9467 135.897 main 1196 1151 __________P___ -1 15.9467 135.897 7 13 303
1933208N08140 1933 33 WP MM NOT_NAMED 1933-07-29 15:00:00 NR 16.2935 135.278 main 1151 1097 __________P___ -1 16.2935 135.278 7 14 299
1933208N08140 1933 33 WP MM NOT_NAMED 1933-07-29 18:00:00 NR 16.6434 134.594 main 1097 1051 __________P___ -1 16.6434 134.594 7 15 298
1933208N08140 1933 33 WP MM NOT_NAMED 1933-07-29 21:00:00 NR 17.0000 133.900 main 1051 1014 __________O___ -1 17.0000 133.900 7 15 298
1933208N08140 1933 33 WP MM NOT_NAMED 1933-07-30 00:00:00 NR 17.3355 133.234 main 1005 970 __________P___ -1 17.3355 133.234 7 14 298
1933208N08140 1933 33 WP MM NOT_NAMED 1933-07-30 03:00:00 NR 17.6830 132.574 main 975 933 __________P___ -1 17.6830 132.574 7 14 301
1933208N08140 1933 33 WP MM NOT_NAMED 1933-07-30 06:00:00 NR 18.0638 131.953 main 938 907 __________P___ -1 18.0638 131.953 7 14 306
1933208N08140 1933 33 WP MM NOT_NAMED 1933-07-30 09:00:00 NR 18.5000 131.400 main 907 897 __________O___ -1 18.5000 131.400 7 14 315
1933208N08140 1933 33 WP MM NOT_NAMED 1933-07-30 12:00:00 NR 19.0451 130.921 main 897 872 __________P___ -1 19.0451 130.921 7 14 324
1933208N08140 1933 33 WP MM NOT_NAMED 1933-07-30 15:00:00 NR 19.6416 130.516 main 872 850 __________P___ -1 19.6416 130.516 7 14 330
1933208N08140 1933 33 WP MM NOT_NAMED 1933-07-30 18:00:00 NR 20.2423 130.177 main 853 836 __________P___ -1 20.2423 130.177 7 13 334
1933208N08140 1933 33 WP MM NOT_NAMED 1933-07-30 21:00:00 NR 20.8000 129.900 main 840 831 __________O___ -1 20.8000 129.900 7 11 335
1933208N08140 1933 33 WP MM NOT_NAMED 1933-07-31 00:00:00 NR 21.2456 129.674 main 834 828 __________P___ -1 21.2456 129.674 7 9 336
1933208N08140 1933 33 WP MM NOT_NAMED 1933-07-31 03:00:00 NR 21.6442 129.503 main 832 815 __________P___ -1 21.6442 129.503 7 8 339
1933208N08140 1933 33 WP MM NOT_NAMED 1933-07-31 06:00:00 NR 22.0207 129.355 main 815 780 __________P___ -1 22.0207 129.355 7 8 340
1933208N08140 1933 33 WP MM NOT_NAMED 1933-07-31 09:00:00 NR 22.4000 129.200 main 780 747 __________O___ -1 22.4000 129.200 4 9 337
1933208N08140 1933 33 WP MM NOT_NAMED 1933-07-31 12:00:00 NR 22.8504 128.970 main 744 703 __________P___ -1 22.8504 128.970 4 10 334
1933208N08140 1933 33 WP MM NOT_NAMED 1933-07-31 15:00:00 NR 23.3027 128.728 main 703 673 __________P___ -1 23.3027 128.728 4 10 334
1933208N08140 1933 33 WP MM NOT_NAMED 1933-07-31 18:00:00 NR 23.7286 128.498 main 673 644 __________P___ -1 23.7286 128.498 4 9 334
1933208N08140 1933 33 WP MM NOT_NAMED 1933-07-31 21:00:00 NR 24.1000 128.300 main 644 630 __________O___ -1 24.1000 128.300 4 7 334
1933208N08140 1933 33 WP MM NOT_NAMED 1933-08-01 00:00:00 NR 24.3620 128.159 main 629 616 __________P___ -1 24.3620 128.159 4 5 335
1933208N08140 1933 33 WP MM NOT_NAMED 1933-08-01 03:00:00 NR 24.5722 128.054 main 616 605 __________P___ -1 24.5722 128.054 4 4 337
1933208N08140 1933 33 WP MM NOT_NAMED 1933-08-01 06:00:00 NR 24.7714 127.972 main 605 594 __________P___ -1 24.7714 127.972 4 5 342
1933208N08140 1933 33 WP MM NOT_NAMED 1933-08-01 09:00:00 NR 25.0000 127.900 main 594 584 __________O___ -1 25.0000 127.900 4 6 348
1933208N08140 1933 33 WP MM NOT_NAMED 1933-08-01 12:00:00 NR 25.3099 127.838 main 584 584 __________P___ -1 25.3099 127.838 4 7 350
1933208N08140 1933 33 WP MM NOT_NAMED 1933-08-01 15:00:00 NR 25.6548 127.779 main 587 579 __________P___ -1 25.6548 127.779 4 7 351
1933208N08140 1933 33 WP MM NOT_NAMED 1933-08-01 18:00:00 NR 26.0223 127.706 main 582 579 __________P___ -1 26.0223 127.706 4 8 348
1933208N08140 1933 33 WP MM NOT_NAMED 1933-08-01 21:00:00 NR 26.4000 127.600 main 581 566 __________O___ -1 26.4000 127.600 4 8 341
1933208N08140 1933 33 WP MM NOT_NAMED 1933-08-02 00:00:00 NR 26.7355 127.428 main 571 542 __________P___ -1 26.7355 127.428 4 8 334
1933208N08140 1933 33 WP MM NOT_NAMED 1933-08-02 03:00:00 NR 27.0828 127.222 main 542 519 __________P___ -1 27.0828 127.222 4 8 333
1933208N08140 1933 33 WP MM NOT_NAMED 1933-08-02 06:00:00 NR 27.4637 127.006 main 516 490 __________P___ -1 27.4637 127.006 4 9 335
1933208N08140 1933 33 WP MM NOT_NAMED 1933-08-02 09:00:00 NR 27.9000 126.800 main 490 456 __________O___ -1 27.9000 126.800 4 10 339
1933208N08140 1933 33 WP MM NOT_NAMED 1933-08-02 12:00:00 NR 28.3932 126.604 main 456 428 __________P___ -1 28.3932 126.604 4 11 343
1933208N08140 1933 33 WP MM NOT_NAMED 1933-08-02 15:00:00 NR 28.9452 126.427 main 428 412 __________P___ -1 28.9452 126.427 4 12 346
1933208N08140 1933 33 WP MM NOT_NAMED 1933-08-02 18:00:00 NR 29.5495 126.286 main 412 334 __________P___ -1 29.5495 126.286 4 13 351
1933208N08140 1933 33 WP MM NOT_NAMED 1933-08-02 21:00:00 NR 30.2000 126.200 main 334 268 __________O___ -1 30.2000 126.200 4 13 354
1933208N08140 1933 33 WP MM NOT_NAMED 1933-08-03 00:00:00 NR 30.8490 126.138 main 268 190 __________P___ -1 30.8490 126.138 4 14 357
1933208N08140 1933 33 WP MM NOT_NAMED 1933-08-03 03:00:00 NR 31.5444 126.140 main 190 111 __________P___ -1 31.5444 126.140 4 15 3
1933208N08140 1933 33 WP MM NOT_NAMED 1933-08-03 06:00:00 NR 32.2926 126.221 main 100 11 __________P___ -1 32.2926 126.221 4 16 8
1933208N08140 1933 33 WP MM NOT_NAMED 1933-08-03 09:00:00 NR 33.1000 126.400 main 11 0 __________O___ -1 33.1000 126.400 4 18 12
1933208N08140 1933 33 WP MM NOT_NAMED 1933-08-03 12:00:00 NR 34.0161 126.668 main 38 0 __________P___ -1 34.0161 126.668 4 20 16
1933208N08140 1933 33 WP MM NOT_NAMED 1933-08-03 15:00:00 NR 34.9798 127.039 main 0 0 __________P___ -1 34.9798 127.039 4 20 19
1933208N08140 1933 33 WP MM NOT_NAMED 1933-08-03 18:00:00 NR 35.9285 127.491 main 0 0 __________P___ -1 35.9285 127.491 4 20 23
1933208N08140 1933 33 WP MM NOT_NAMED 1933-08-03 21:00:00 NR 36.8000 128.000 main 0 0 __________O___ -1 36.8000 128.000 4 18 27
1933208N08140 1933 33 WP MM NOT_NAMED 1933-08-04 00:00:00 NR 37.5687 128.548 main 0 0 __________P___ -1 37.5687 128.548 4 17 32
1933208N08140 1933 33 WP MM NOT_NAMED 1933-08-04 03:00:00 NR 38.2459 129.140 main 41 41 __________P___ -1 38.2459 129.140 4 16 37
1933208N08140 1933 33 WP MM NOT_NAMED 1933-08-04 06:00:00 NR 38.8251 129.738 main 112 112 __________P___ -1 38.8251 129.738 4 14 41
1933208N08140 1933 33 WP MM NOT_NAMED 1933-08-04 09:00:00 NR 39.3000 130.300 main 168 153 __________O___ -1 39.3000 130.300 7 12 44
1933208N08140 1933 33 WP MM NOT_NAMED 1933-08-04 12:00:00 NR 39.6708 130.794 main 153 150 __________P___ -1 39.6708 130.794 7 10 47
1933208N08140 1933 33 WP MM NOT_NAMED 1933-08-04 15:00:00 NR 39.9596 131.229 main 154 154 __________P___ -1 39.9596 131.229 7 8 51
1933208N08140 1933 33 WP MM NOT_NAMED 1933-08-04 18:00:00 NR 40.1937 131.624 main 173 173 __________P___ -1 40.1937 131.624 7 7 53
1933208N08140 1933 33 WP MM NOT_NAMED 1933-08-04 21:00:00 NR 40.4000 132.000 main 198 __________O___ -1 40.4000 132.000 7 7 54

デジタル台風データ・検索

IBTrACS Databaseについて

本データベースは、米国NOAAが公開する1842年以降の世界の熱帯低気圧のベストトラックデータアーカイブInternational Best Track Archive for Climate Stewardship (IBTrACS)を、ウェブで閲覧しやすい形式に変換したものです。

最終更新日:2021-10-21